createdAt,value
2022-08-28T00:02:51.354Z,21.32
2022-08-28T00:05:53.626Z,21.32
2022-08-28T00:08:55.957Z,21.29
2022-08-28T00:11:57.443Z,21.28
2022-08-28T00:14:59.452Z,21.24
2022-08-28T00:18:03.561Z,21.26
2022-08-28T00:21:05.765Z,21.25
2022-08-28T00:24:07.498Z,21.21
2022-08-28T00:27:27.702Z,21.00
2022-08-28T00:30:37.148Z,20.96
2022-08-28T00:33:38.619Z,20.98
2022-08-28T00:36:41.334Z,20.86
2022-08-28T00:39:42.798Z,20.99
2022-08-28T00:42:46.925Z,21.01
2022-08-28T00:45:48.404Z,21.04
2022-08-28T00:48:50.499Z,21.00
2022-08-28T00:52:07.976Z,20.95
2022-08-28T00:55:14.156Z,20.84
2022-08-28T00:58:16.448Z,20.60
2022-08-28T01:01:18.284Z,20.72
2022-08-28T01:04:22.717Z,20.74
2022-08-28T01:07:24.333Z,20.73
2022-08-28T01:10:29.715Z,20.87
2022-08-28T01:13:32.358Z,20.78
2022-08-28T01:16:35.029Z,20.79
2022-08-28T01:19:41.058Z,20.84
2022-08-28T01:23:20.269Z,20.70
2022-08-28T01:26:22.216Z,20.66
2022-08-28T01:29:23.664Z,20.77
2022-08-28T01:32:31.981Z,20.74
2022-08-28T01:35:37.981Z,20.68
2022-08-28T01:38:41.231Z,20.55
2022-08-28T01:41:46.348Z,20.51
2022-08-28T01:44:47.877Z,20.37
2022-08-28T01:47:51.406Z,20.48
2022-08-28T01:50:53.049Z,20.65
2022-08-28T01:53:54.467Z,20.58
2022-08-28T01:56:56.313Z,20.60
2022-08-28T01:59:57.751Z,20.27
2022-08-28T02:03:00.723Z,20.30
2022-08-28T02:06:02.189Z,20.38
2022-08-28T02:09:06.014Z,20.44
2022-08-28T02:12:07.537Z,20.44
2022-08-28T02:15:10.300Z,20.38
2022-08-28T02:18:12.536Z,20.30
2022-08-28T02:21:14.606Z,20.33
2022-08-28T02:24:17.114Z,20.33
2022-08-28T02:27:18.941Z,20.35
2022-08-28T02:30:21.061Z,20.38
2022-08-28T02:33:22.488Z,20.40
2022-08-28T02:36:24.371Z,20.36
2022-08-28T02:39:25.844Z,20.22
2022-08-28T02:42:28.507Z,20.21
2022-08-28T02:45:30.180Z,20.17
2022-08-28T02:48:34.281Z,20.16
2022-08-28T02:51:36.068Z,20.23
2022-08-28T02:54:41.679Z,20.14
2022-08-28T02:57:43.882Z,20.09
2022-08-28T03:00:45.518Z,20.06
2022-08-28T03:03:47.029Z,20.08
2022-08-28T03:06:49.776Z,20.04
2022-08-28T03:09:51.305Z,19.82
2022-08-28T03:13:08.109Z,20.04
2022-08-28T03:16:10.283Z,19.98
2022-08-28T03:19:11.753Z,20.00
2022-08-28T03:22:13.538Z,19.85
2022-08-28T03:25:14.961Z,19.96
2022-08-28T03:28:16.364Z,19.95
2022-08-28T03:31:21.515Z,19.80
2022-08-28T03:34:23.223Z,19.84
2022-08-28T03:37:24.640Z,19.79
2022-08-28T03:40:26.456Z,19.71
2022-08-28T03:43:28.570Z,19.66
2022-08-28T03:46:32.959Z,19.63
2022-08-28T03:49:34.328Z,19.68
2022-08-28T03:52:37.715Z,19.71
2022-08-28T03:55:42.875Z,19.70
2022-08-28T03:58:44.593Z,19.71
2022-08-28T04:01:46.199Z,19.65
2022-08-28T04:04:49.392Z,19.69
2022-08-28T04:07:51.890Z,19.64
2022-08-28T04:10:53.925Z,19.62
2022-08-28T04:13:55.466Z,19.55
2022-08-28T04:17:01.290Z,19.55
2022-08-28T04:20:03.544Z,19.62
2022-08-28T04:23:07.731Z,19.55
2022-08-28T04:26:11.287Z,19.60
2022-08-28T04:29:12.822Z,19.70
2022-08-28T04:32:14.329Z,19.49
2022-08-28T04:35:16.635Z,19.48
2022-08-28T04:38:19.021Z,19.58
2022-08-28T04:41:20.603Z,19.55
2022-08-28T04:44:23.089Z,19.54
2022-08-28T04:47:24.536Z,19.57
2022-08-28T04:50:25.984Z,19.38
2022-08-28T04:53:27.515Z,19.44
2022-08-28T04:56:29.015Z,19.43
2022-08-28T04:59:30.470Z,19.49
2022-08-28T05:02:32.091Z,19.56
2022-08-28T05:05:34.273Z,19.50
2022-08-28T05:08:35.994Z,19.53
2022-08-28T05:11:37.462Z,19.60
2022-08-28T05:14:39.841Z,19.53
2022-08-28T05:17:41.299Z,19.48
2022-08-28T05:20:46.768Z,19.43
2022-08-28T05:23:50.031Z,19.49
2022-08-28T05:26:51.839Z,19.53
2022-08-28T05:29:55.497Z,19.59
2022-08-28T05:33:00.035Z,19.44
2022-08-28T05:36:05.455Z,19.40
2022-08-28T05:39:10.616Z,19.48
2022-08-28T05:42:12.122Z,19.60
2022-08-28T05:45:13.878Z,19.48
2022-08-28T05:48:16.221Z,19.60
2022-08-28T05:51:22.331Z,19.61
2022-08-28T05:54:23.914Z,19.69
2022-08-28T05:57:25.353Z,19.62
2022-08-28T06:00:26.895Z,19.69
2022-08-28T06:03:28.327Z,19.64
2022-08-28T06:06:34.199Z,19.51
2022-08-28T06:09:35.644Z,19.49
2022-08-28T06:12:37.079Z,19.52
2022-08-28T06:15:45.951Z,19.62
2022-08-28T06:18:47.893Z,19.70
2022-08-28T06:21:52.486Z,19.72
2022-08-28T06:24:53.940Z,19.75
2022-08-28T06:27:55.866Z,19.72
2022-08-28T06:31:22.928Z,19.79
2022-08-28T06:34:19.274Z,19.66
2022-08-28T06:37:20.797Z,19.82
2022-08-28T06:40:22.610Z,19.74
2022-08-28T06:43:26.429Z,19.60
2022-08-28T06:46:30.301Z,19.67
2022-08-28T06:49:31.806Z,19.69
2022-08-28T06:52:33.393Z,19.73
2022-08-28T06:55:37.242Z,19.70
2022-08-28T06:58:50.100Z,19.59
2022-08-28T07:01:54.420Z,19.84
2022-08-28T07:04:56.242Z,19.77
2022-08-28T07:07:57.727Z,19.80
2022-08-28T07:11:00.216Z,19.81
2022-08-28T07:14:03.318Z,19.82
2022-08-28T07:17:07.278Z,20.00
2022-08-28T07:20:10.620Z,20.13
2022-08-28T07:23:12.100Z,19.94
2022-08-28T07:26:17.293Z,20.12
2022-08-28T07:29:19.542Z,20.21
2022-08-28T07:32:23.856Z,20.44
2022-08-28T07:35:25.189Z,20.29
2022-08-28T07:38:27.473Z,20.46
2022-08-28T07:41:31.368Z,20.57
2022-08-28T07:44:50.994Z,20.61
2022-08-28T07:47:52.434Z,20.83
2022-08-28T07:50:53.944Z,20.76
2022-08-28T07:53:59.022Z,20.76
2022-08-28T07:57:02.044Z,21.00
2022-08-28T08:00:05.015Z,20.94
2022-08-28T08:03:06.453Z,21.23
2022-08-28T08:06:08.063Z,21.39
2022-08-28T08:09:12.409Z,21.39
2022-08-28T08:12:14.554Z,21.41
2022-08-28T08:15:16.093Z,21.32
2022-08-28T08:18:17.605Z,21.33
2022-08-28T08:21:26.114Z,21.23
2022-08-28T08:24:31.187Z,21.29
2022-08-28T08:27:34.505Z,21.30
2022-08-28T08:30:36.043Z,21.51
2022-08-28T08:33:39.254Z,21.52
2022-08-28T08:36:40.745Z,21.48
2022-08-28T08:39:43.360Z,21.46
2022-08-28T08:42:48.946Z,21.75
2022-08-28T08:45:52.331Z,21.81
2022-08-28T08:48:56.675Z,21.65
2022-08-28T08:52:17.725Z,21.80
2022-08-28T08:55:21.382Z,21.90
2022-08-28T08:58:31.878Z,21.90
2022-08-28T09:01:41.987Z,21.83
2022-08-28T09:05:04.970Z,22.07
2022-08-28T09:08:12.996Z,21.85
2022-08-28T09:11:41.659Z,22.09
2022-08-28T09:14:46.188Z,22.28
2022-08-28T09:17:52.914Z,22.27
2022-08-28T09:20:58.067Z,22.60
2022-08-28T09:24:05.788Z,22.37
2022-08-28T09:27:29.142Z,22.34
2022-08-28T09:30:31.644Z,22.42
2022-08-28T09:33:41.824Z,22.74
2022-08-28T09:36:43.599Z,22.53
2022-08-28T09:39:48.783Z,22.66
2022-08-28T09:43:28.717Z,22.59
2022-08-28T09:46:32.138Z,22.96
2022-08-28T09:49:33.688Z,22.81
2022-08-28T09:52:35.129Z,23.00
2022-08-28T09:55:48.407Z,23.19
2022-08-28T09:58:54.586Z,23.34
2022-08-28T10:02:10.484Z,23.04
2022-08-28T10:05:18.652Z,22.93
2022-08-28T10:08:49.285Z,23.09
2022-08-28T10:12:09.160Z,23.47
2022-08-28T10:15:16.366Z,23.55
2022-08-28T10:18:26.800Z,23.37
2022-08-28T10:21:56.198Z,23.60
2022-08-28T10:25:29.056Z,23.72
2022-08-28T10:28:39.726Z,23.74
2022-08-28T10:31:50.498Z,24.34
2022-08-28T10:35:25.795Z,24.06
2022-08-28T10:38:40.174Z,24.41
2022-08-28T10:42:06.065Z,24.53
2022-08-28T10:45:13.914Z,24.32
2022-08-28T10:48:26.948Z,24.27
2022-08-28T10:51:35.846Z,24.30
2022-08-28T10:54:46.101Z,24.86
2022-08-28T10:57:52.597Z,24.64
2022-08-28T11:01:07.187Z,25.20
2022-08-28T11:04:24.932Z,24.74
2022-08-28T11:07:46.965Z,25.25
2022-08-28T11:10:51.941Z,25.07
2022-08-28T11:13:59.702Z,25.06
2022-08-28T11:17:06.081Z,25.06
2022-08-28T11:20:14.024Z,25.33
2022-08-28T11:23:20.765Z,25.12
2022-08-28T11:26:30.142Z,25.26
2022-08-28T11:29:57.671Z,25.52
2022-08-28T11:33:04.588Z,25.79
2022-08-28T11:36:10.634Z,25.56
2022-08-28T11:39:14.796Z,25.58
2022-08-28T11:42:34.712Z,25.44
2022-08-28T11:45:42.497Z,25.23
2022-08-28T11:48:53.797Z,25.24
2022-08-28T11:52:17.062Z,25.83
2022-08-28T11:55:36.110Z,25.98
2022-08-28T11:58:47.179Z,26.28
2022-08-28T12:01:49.353Z,26.31
2022-08-28T12:04:51.055Z,26.81
2022-08-28T12:07:52.597Z,26.53
2022-08-28T12:10:57.734Z,26.74
2022-08-28T12:13:59.245Z,26.66
2022-08-28T12:17:03.820Z,26.48
2022-08-28T12:20:12.343Z,26.30
2022-08-28T12:23:38.163Z,25.86
2022-08-28T12:26:47.663Z,26.66
2022-08-28T12:29:57.022Z,26.69
2022-08-28T12:33:07.954Z,27.16
2022-08-28T12:36:16.641Z,26.23
2022-08-28T12:39:18.942Z,26.28
2022-08-28T12:42:24.022Z,26.37
2022-08-28T12:45:43.073Z,26.41
2022-08-28T12:48:53.963Z,26.73
2022-08-28T12:52:16.758Z,27.07
2022-08-28T12:55:24.310Z,27.28
2022-08-28T12:58:39.266Z,26.93
2022-08-28T13:01:41.590Z,27.78
2022-08-28T13:04:53.588Z,27.61
2022-08-28T13:08:00.089Z,27.36
2022-08-28T13:11:01.859Z,26.81
2022-08-28T13:14:04.487Z,26.64
2022-08-28T13:17:06.509Z,26.73
2022-08-28T13:20:10.155Z,27.37
2022-08-28T13:23:27.985Z,27.59
2022-08-28T13:26:35.924Z,28.08
2022-08-28T13:29:40.413Z,27.98
2022-08-28T13:32:59.536Z,27.08
2022-08-28T13:36:20.642Z,27.50
2022-08-28T13:39:22.945Z,28.61
2022-08-28T13:42:24.461Z,28.27
2022-08-28T13:45:26.035Z,27.63
2022-08-28T13:48:28.202Z,28.04
2022-08-28T13:51:29.687Z,28.04
2022-08-28T13:54:31.877Z,28.12
2022-08-28T13:57:36.277Z,28.14
2022-08-28T14:00:43.157Z,26.98
2022-08-28T14:03:44.676Z,27.52
2022-08-28T14:06:46.257Z,27.44
2022-08-28T14:09:47.874Z,28.02
2022-08-28T14:12:50.125Z,27.90
2022-08-28T14:15:51.567Z,27.84
2022-08-28T14:18:53.889Z,27.62
2022-08-28T14:21:56.165Z,27.42
2022-08-28T14:24:57.737Z,27.49
2022-08-28T14:27:59.610Z,27.32
2022-08-28T14:31:01.055Z,27.11
2022-08-28T14:34:05.023Z,26.95
2022-08-28T14:37:06.723Z,27.00
2022-08-28T14:40:08.894Z,27.13
2022-08-28T14:43:12.028Z,26.94
2022-08-28T14:46:25.958Z,27.49
2022-08-28T14:49:28.242Z,28.27
2022-08-28T14:52:29.750Z,28.73
2022-08-28T14:55:31.260Z,28.42
2022-08-28T14:58:33.631Z,28.03
2022-08-28T15:01:40.285Z,27.50
2022-08-28T15:04:42.643Z,26.83
2022-08-28T15:07:44.086Z,26.83
2022-08-28T15:10:45.623Z,26.79
2022-08-28T15:13:48.744Z,27.03
2022-08-28T15:16:50.428Z,27.37
2022-08-28T15:19:52.175Z,27.54
2022-08-28T15:22:53.650Z,27.59
2022-08-28T15:25:55.173Z,27.41
2022-08-28T15:29:02.123Z,27.36
2022-08-28T15:32:04.160Z,28.16
2022-08-28T15:35:06.218Z,27.62
2022-08-28T15:38:08.192Z,27.91
2022-08-28T15:41:24.623Z,27.99
2022-08-28T15:44:26.592Z,27.85
2022-08-28T15:47:28.075Z,27.89
2022-08-28T15:50:29.698Z,28.13
2022-08-28T15:53:31.186Z,27.77
2022-08-28T15:56:32.633Z,27.77
2022-08-28T15:59:39.961Z,27.75
2022-08-28T16:02:51.795Z,27.43
2022-08-28T16:05:53.417Z,27.47
2022-08-28T16:08:55.689Z,27.22
2022-08-28T16:11:57.168Z,27.46
2022-08-28T16:14:58.796Z,27.51
2022-08-28T16:18:00.381Z,27.59
2022-08-28T16:21:04.871Z,27.37
2022-08-28T16:24:06.729Z,27.00
2022-08-28T16:27:13.148Z,26.89
2022-08-28T16:30:17.389Z,27.07
2022-08-28T16:33:22.075Z,27.19
2022-08-28T16:36:25.146Z,26.84
2022-08-28T16:39:26.846Z,26.93
2022-08-28T16:42:32.668Z,26.76
2022-08-28T16:45:34.549Z,26.81
2022-08-28T16:48:36.078Z,26.88
2022-08-28T16:51:39.484Z,26.76
2022-08-28T16:54:48.263Z,26.82
2022-08-28T16:57:50.401Z,26.72
2022-08-28T17:00:52.738Z,26.82
2022-08-28T17:03:56.479Z,27.09
2022-08-28T17:06:57.965Z,26.94
2022-08-28T17:10:00.171Z,26.90
2022-08-28T17:13:02.523Z,26.94
2022-08-28T17:16:04.866Z,26.78
2022-08-28T17:19:06.408Z,26.67
2022-08-28T17:22:27.238Z,26.68
2022-08-28T17:25:29.308Z,26.41
2022-08-28T17:28:31.077Z,26.35
2022-08-28T17:31:33.832Z,25.86
2022-08-28T17:34:35.901Z,25.80
2022-08-28T17:37:38.310Z,25.78
2022-08-28T17:40:39.988Z,25.70
2022-08-28T17:43:41.607Z,25.77
2022-08-28T17:46:43.212Z,25.63
2022-08-28T17:49:44.725Z,25.60
2022-08-28T17:52:46.312Z,25.48
2022-08-28T17:55:47.771Z,25.36
2022-08-28T17:58:49.447Z,25.22
2022-08-28T18:01:51.213Z,25.05
2022-08-28T18:04:52.808Z,25.00
2022-08-28T18:07:54.624Z,24.88
2022-08-28T18:10:56.038Z,24.60
2022-08-28T18:13:59.716Z,24.53
2022-08-28T18:17:01.197Z,24.09
2022-08-28T18:20:07.848Z,23.80
2022-08-28T18:23:09.360Z,23.54
2022-08-28T18:26:10.912Z,23.38
2022-08-28T18:29:12.419Z,23.45
2022-08-28T18:32:14.702Z,23.42
2022-08-28T18:35:16.166Z,23.07
2022-08-28T18:38:18.814Z,22.81
2022-08-28T18:41:20.626Z,22.92
2022-08-28T18:44:24.312Z,22.89
2022-08-28T18:47:25.911Z,22.58
2022-08-28T18:50:29.208Z,22.58
2022-08-28T18:53:30.755Z,22.42
2022-08-28T18:56:32.555Z,22.29
2022-08-28T18:59:35.122Z,22.16
2022-08-28T19:02:41.231Z,21.95
2022-08-28T19:05:43.206Z,21.90
2022-08-28T19:08:45.914Z,21.72
2022-08-28T19:11:47.711Z,21.68
2022-08-28T19:14:53.142Z,21.50
2022-08-28T19:17:54.653Z,21.40
2022-08-28T19:21:07.678Z,21.42
2022-08-28T19:24:09.150Z,21.23
2022-08-28T19:27:10.697Z,21.08
2022-08-28T19:30:15.030Z,21.16
2022-08-28T19:33:16.692Z,21.01
2022-08-28T19:36:18.612Z,21.03
2022-08-28T19:39:20.062Z,21.16
2022-08-28T19:42:22.630Z,20.87
2022-08-28T19:45:24.081Z,21.07
2022-08-28T19:48:25.657Z,20.80
2022-08-28T19:51:27.323Z,20.79
2022-08-28T19:54:29.597Z,20.73
2022-08-28T19:57:31.052Z,20.50
2022-08-28T20:00:35.339Z,20.40
2022-08-28T20:03:36.839Z,20.53
2022-08-28T20:06:38.405Z,20.39
2022-08-28T20:09:39.839Z,20.41
2022-08-28T20:12:48.177Z,20.37
2022-08-28T20:15:50.417Z,20.35
2022-08-28T20:18:52.228Z,20.19
2022-08-28T20:21:54.554Z,20.11
2022-08-28T20:24:56.068Z,20.15
2022-08-28T20:28:01.545Z,20.14
2022-08-28T20:31:16.310Z,19.96
2022-08-28T20:34:19.074Z,19.83
2022-08-28T20:37:20.747Z,20.02
2022-08-28T20:40:22.390Z,20.01
2022-08-28T20:43:23.883Z,19.83
2022-08-28T20:46:25.465Z,19.89
2022-08-28T20:49:27.777Z,19.98
2022-08-28T20:52:29.239Z,19.82
2022-08-28T20:55:31.519Z,19.71
2022-08-28T20:58:33.600Z,19.82
2022-08-28T21:01:35.255Z,19.72
2022-08-28T21:04:38.858Z,19.75
2022-08-28T21:07:40.489Z,19.69
2022-08-28T21:10:44.265Z,19.88
2022-08-28T21:13:45.707Z,19.60
2022-08-28T21:16:47.566Z,19.75
2022-08-28T21:19:50.540Z,19.67
2022-08-28T21:22:52.819Z,19.56
2022-08-28T21:25:54.289Z,19.49
2022-08-28T21:28:55.833Z,19.34
2022-08-28T21:31:57.307Z,19.64
2022-08-28T21:34:58.858Z,19.50
2022-08-28T21:38:00.369Z,19.51
2022-08-28T21:41:14.218Z,19.53
2022-08-28T21:44:15.954Z,19.52
2022-08-28T21:47:17.497Z,19.41
2022-08-28T21:50:19.522Z,19.41
2022-08-28T21:53:21.149Z,19.36
2022-08-28T21:56:26.636Z,19.30
2022-08-28T21:59:30.325Z,19.27
2022-08-28T22:02:39.373Z,19.92
2022-08-28T22:05:45.814Z,19.92
2022-08-28T22:08:48.491Z,19.89
2022-08-28T22:11:49.949Z,19.88
2022-08-28T22:14:51.800Z,19.73
2022-08-28T22:17:53.585Z,19.55
2022-08-28T22:21:14.137Z,19.30
2022-08-28T22:24:15.889Z,19.21
2022-08-28T22:27:17.454Z,19.35
2022-08-28T22:30:20.808Z,19.42
2022-08-28T22:33:22.308Z,19.30
2022-08-28T22:36:23.974Z,19.34
2022-08-28T22:39:30.948Z,19.25
2022-08-28T22:42:32.447Z,19.10
2022-08-28T22:45:33.961Z,19.18
2022-08-28T22:48:35.863Z,19.20
2022-08-28T22:51:37.317Z,19.11
2022-08-28T22:54:38.926Z,19.01
2022-08-28T22:57:40.716Z,19.08
2022-08-28T23:00:42.293Z,19.08
2022-08-28T23:03:44.979Z,18.90
2022-08-28T23:06:46.510Z,18.92
2022-08-28T23:09:47.980Z,18.95
2022-08-28T23:12:49.662Z,18.83
2022-08-28T23:15:51.077Z,18.68
2022-08-28T23:19:07.859Z,18.58
2022-08-28T23:22:10.678Z,18.58
2022-08-28T23:25:18.668Z,18.68
2022-08-28T23:28:20.203Z,18.52
2022-08-28T23:31:21.844Z,18.49
2022-08-28T23:34:23.482Z,18.48
2022-08-28T23:37:25.691Z,18.26
2022-08-28T23:40:28.144Z,18.16
2022-08-28T23:43:32.157Z,18.17
2022-08-28T23:46:33.837Z,18.26
2022-08-28T23:49:35.490Z,17.94
2022-08-28T23:52:44.611Z,18.01
2022-08-28T23:55:46.204Z,18.15
2022-08-28T23:58:51.129Z,18.11
